sensor_id;sensor_type;location;lat;lon;timestamp;temperature;humidity
17202;DHT22;8717;53.588;10.176;2022-11-13T00:00:16;3.60;99.90
17202;DHT22;8717;53.588;10.176;2022-11-13T00:03:02;3.60;99.90
17202;DHT22;8717;53.588;10.176;2022-11-13T00:05:47;3.50;99.90
17202;DHT22;8717;53.588;10.176;2022-11-13T00:08:33;3.60;99.90
17202;DHT22;8717;53.588;10.176;2022-11-13T00:11:18;3.60;99.90
17202;DHT22;8717;53.588;10.176;2022-11-13T00:14:05;3.60;99.90
17202;DHT22;8717;53.588;10.176;2022-11-13T00:16:51;3.60;99.90
17202;DHT22;8717;53.588;10.176;2022-11-13T00:19:36;3.60;99.90
17202;DHT22;8717;53.588;10.176;2022-11-13T00:22:21;3.60;99.90
17202;DHT22;8717;53.588;10.176;2022-11-13T00:25:07;3.50;99.90
17202;DHT22;8717;53.588;10.176;2022-11-13T00:27:53;3.50;99.90
17202;DHT22;8717;53.588;10.176;2022-11-13T00:30:40;3.50;99.90
17202;DHT22;8717;53.588;10.176;2022-11-13T00:33:25;3.60;99.90
17202;DHT22;8717;53.588;10.176;2022-11-13T00:36:14;3.60;99.90
17202;DHT22;8717;53.588;10.176;2022-11-13T00:39:00;3.60;99.90
17202;DHT22;8717;53.588;10.176;2022-11-13T00:41:45;3.60;99.90
17202;DHT22;8717;53.588;10.176;2022-11-13T00:44:30;3.70;99.90
17202;DHT22;8717;53.588;10.176;2022-11-13T00:47:17;3.70;99.90
17202;DHT22;8717;53.588;10.176;2022-11-13T00:50:02;3.70;99.90
17202;DHT22;8717;53.588;10.176;2022-11-13T00:52:48;3.80;99.90
17202;DHT22;8717;53.588;10.176;2022-11-13T00:55:33;3.80;99.90
17202;DHT22;8717;53.588;10.176;2022-11-13T00:58:18;3.80;99.90
17202;DHT22;8717;53.588;10.176;2022-11-13T01:01:06;3.80;99.90
17202;DHT22;8717;53.588;10.176;2022-11-13T01:03:53;3.80;99.90
17202;DHT22;8717;53.588;10.176;2022-11-13T01:06:38;3.80;99.90
17202;DHT22;8717;53.588;10.176;2022-11-13T01:09:23;3.80;99.90
17202;DHT22;8717;53.588;10.176;2022-11-13T01:12:09;3.90;99.90
17202;DHT22;8717;53.588;10.176;2022-11-13T01:14:54;3.90;99.90
17202;DHT22;8717;53.588;10.176;2022-11-13T01:17:40;3.90;99.90
17202;DHT22;8717;53.588;10.176;2022-11-13T01:20:26;3.90;99.90
17202;DHT22;8717;53.588;10.176;2022-11-13T01:23:12;3.90;99.90
17202;DHT22;8717;53.588;10.176;2022-11-13T01:26:04;3.90;99.90
17202;DHT22;8717;53.588;10.176;2022-11-13T01:28:49;3.90;99.90
17202;DHT22;8717;53.588;10.176;2022-11-13T01:31:35;3.90;99.90
17202;DHT22;8717;53.588;10.176;2022-11-13T01:34:20;3.90;99.90
17202;DHT22;8717;53.588;10.176;2022-11-13T01:37:06;3.90;99.90
17202;DHT22;8717;53.588;10.176;2022-11-13T01:39:52;3.90;99.90
17202;DHT22;8717;53.588;10.176;2022-11-13T01:42:37;3.90;99.90
17202;DHT22;8717;53.588;10.176;2022-11-13T01:45:59;3.90;99.90
17202;DHT22;8717;53.588;10.176;2022-11-13T01:48:49;4.00;99.90
17202;DHT22;8717;53.588;10.176;2022-11-13T01:51:39;3.90;99.90
17202;DHT22;8717;53.588;10.176;2022-11-13T01:54:29;3.90;99.90
17202;DHT22;8717;53.588;10.176;2022-11-13T01:57:16;3.90;99.90
17202;DHT22;8717;53.588;10.176;2022-11-13T02:00:05;3.90;99.90
17202;DHT22;8717;53.588;10.176;2022-11-13T02:02:53;3.90;99.90
17202;DHT22;8717;53.588;10.176;2022-11-13T02:05:38;3.90;99.90
17202;DHT22;8717;53.588;10.176;2022-11-13T02:08:23;3.90;99.90
17202;DHT22;8717;53.588;10.176;2022-11-13T02:11:11;3.90;99.90
17202;DHT22;8717;53.588;10.176;2022-11-13T02:13:57;3.90;99.90
17202;DHT22;8717;53.588;10.176;2022-11-13T02:16:45;3.90;99.90
17202;DHT22;8717;53.588;10.176;2022-11-13T02:19:34;3.90;99.90
17202;DHT22;8717;53.588;10.176;2022-11-13T02:22:32;3.90;99.90
17202;DHT22;8717;53.588;10.176;2022-11-13T02:25:21;3.90;99.90
17202;DHT22;8717;53.588;10.176;2022-11-13T02:28:06;4.00;99.90
17202;DHT22;8717;53.588;10.176;2022-11-13T02:30:51;4.00;99.90
17202;DHT22;8717;53.588;10.176;2022-11-13T02:33:37;4.00;99.90
17202;DHT22;8717;53.588;10.176;2022-11-13T02:36:24;4.00;99.90
17202;DHT22;8717;53.588;10.176;2022-11-13T02:39:12;4.00;99.90
17202;DHT22;8717;53.588;10.176;2022-11-13T02:41:59;4.00;99.90
17202;DHT22;8717;53.588;10.176;2022-11-13T02:44:45;4.00;99.90
17202;DHT22;8717;53.588;10.176;2022-11-13T02:47:30;4.10;99.90
17202;DHT22;8717;53.588;10.176;2022-11-13T02:50:16;4.00;99.90
17202;DHT22;8717;53.588;10.176;2022-11-13T02:53:02;4.10;99.90
17202;DHT22;8717;53.588;10.176;2022-11-13T02:55:48;4.10;99.90
17202;DHT22;8717;53.588;10.176;2022-11-13T02:58:35;4.00;99.90
17202;DHT22;8717;53.588;10.176;2022-11-13T03:01:20;4.10;99.90
17202;DHT22;8717;53.588;10.176;2022-11-13T03:04:05;4.00;99.90
17202;DHT22;8717;53.588;10.176;2022-11-13T03:06:50;4.10;99.90
17202;DHT22;8717;53.588;10.176;2022-11-13T03:09:36;4.10;99.90
17202;DHT22;8717;53.588;10.176;2022-11-13T03:12:21;4.10;99.90
17202;DHT22;8717;53.588;10.176;2022-11-13T03:15:12;4.10;99.90
17202;DHT22;8717;53.588;10.176;2022-11-13T03:18:01;4.10;99.90
17202;DHT22;8717;53.588;10.176;2022-11-13T03:20:47;4.10;99.90
17202;DHT22;8717;53.588;10.176;2022-11-13T03:23:37;4.10;99.90
17202;DHT22;8717;53.588;10.176;2022-11-13T03:26:22;4.00;99.90
17202;DHT22;8717;53.588;10.176;2022-11-13T03:29:08;4.10;99.90
17202;DHT22;8717;53.588;10.176;2022-11-13T03:31:54;4.10;99.90
17202;DHT22;8717;53.588;10.176;2022-11-13T03:34:40;4.10;99.90
17202;DHT22;8717;53.588;10.176;2022-11-13T03:37:25;4.00;99.90
17202;DHT22;8717;53.588;10.176;2022-11-13T03:40:11;4.00;99.90
17202;DHT22;8717;53.588;10.176;2022-11-13T03:42:56;4.00;99.90
17202;DHT22;8717;53.588;10.176;2022-11-13T03:45:43;4.00;99.90
17202;DHT22;8717;53.588;10.176;2022-11-13T03:48:30;3.90;99.90
17202;DHT22;8717;53.588;10.176;2022-11-13T03:51:16;3.90;99.90
17202;DHT22;8717;53.588;10.176;2022-11-13T03:54:01;3.90;99.90
17202;DHT22;8717;53.588;10.176;2022-11-13T03:56:50;3.90;99.90
17202;DHT22;8717;53.588;10.176;2022-11-13T03:59:35;3.90;99.90
17202;DHT22;8717;53.588;10.176;2022-11-13T04:02:20;3.90;99.90
17202;DHT22;8717;53.588;10.176;2022-11-13T04:05:08;3.90;99.90
17202;DHT22;8717;53.588;10.176;2022-11-13T04:07:54;3.90;99.90
17202;DHT22;8717;53.588;10.176;2022-11-13T04:10:40;3.90;99.90
17202;DHT22;8717;53.588;10.176;2022-11-13T04:13:25;4.00;99.90
17202;DHT22;8717;53.588;10.176;2022-11-13T04:16:10;3.90;99.90
17202;DHT22;8717;53.588;10.176;2022-11-13T04:18:59;3.90;99.90
17202;DHT22;8717;53.588;10.176;2022-11-13T04:21:46;4.00;99.90
17202;DHT22;8717;53.588;10.176;2022-11-13T04:24:31;4.00;99.90
17202;DHT22;8717;53.588;10.176;2022-11-13T04:27:16;4.00;99.90
17202;DHT22;8717;53.588;10.176;2022-11-13T04:30:02;4.00;99.90
17202;DHT22;8717;53.588;10.176;2022-11-13T04:32:48;4.00;99.90
17202;DHT22;8717;53.588;10.176;2022-11-13T04:35:33;3.90;99.90
17202;DHT22;8717;53.588;10.176;2022-11-13T04:38:20;3.90;99.90
17202;DHT22;8717;53.588;10.176;2022-11-13T04:41:05;3.90;99.90
17202;DHT22;8717;53.588;10.176;2022-11-13T04:44:08;3.90;99.90
17202;DHT22;8717;53.588;10.176;2022-11-13T04:46:54;3.90;99.90
17202;DHT22;8717;53.588;10.176;2022-11-13T04:49:39;3.80;99.90
17202;DHT22;8717;53.588;10.176;2022-11-13T04:52:24;3.80;99.90
17202;DHT22;8717;53.588;10.176;2022-11-13T04:55:12;3.80;99.90
17202;DHT22;8717;53.588;10.176;2022-11-13T04:57:58;3.80;99.90
17202;DHT22;8717;53.588;10.176;2022-11-13T05:00:46;3.80;99.90
17202;DHT22;8717;53.588;10.176;2022-11-13T05:03:34;3.70;99.90
17202;DHT22;8717;53.588;10.176;2022-11-13T05:06:19;3.70;99.90
17202;DHT22;8717;53.588;10.176;2022-11-13T05:09:04;3.70;99.90
17202;DHT22;8717;53.588;10.176;2022-11-13T05:11:51;3.70;99.90
17202;DHT22;8717;53.588;10.176;2022-11-13T05:14:37;3.60;99.90
17202;DHT22;8717;53.588;10.176;2022-11-13T05:17:23;3.60;99.90
17202;DHT22;8717;53.588;10.176;2022-11-13T05:20:09;3.60;99.90
17202;DHT22;8717;53.588;10.176;2022-11-13T05:22:55;3.60;99.90
17202;DHT22;8717;53.588;10.176;2022-11-13T05:25:40;3.60;99.90
17202;DHT22;8717;53.588;10.176;2022-11-13T05:28:27;3.60;99.90
17202;DHT22;8717;53.588;10.176;2022-11-13T05:31:14;3.50;99.90
17202;DHT22;8717;53.588;10.176;2022-11-13T05:34:01;3.50;99.90
17202;DHT22;8717;53.588;10.176;2022-11-13T05:36:46;3.50;99.90
17202;DHT22;8717;53.588;10.176;2022-11-13T05:39:32;3.50;99.90
17202;DHT22;8717;53.588;10.176;2022-11-13T05:42:17;3.40;99.90
17202;DHT22;8717;53.588;10.176;2022-11-13T05:45:04;3.40;99.90
17202;DHT22;8717;53.588;10.176;2022-11-13T05:47:50;3.40;99.90
17202;DHT22;8717;53.588;10.176;2022-11-13T05:50:35;3.30;99.90
17202;DHT22;8717;53.588;10.176;2022-11-13T05:53:20;3.30;99.90
17202;DHT22;8717;53.588;10.176;2022-11-13T05:56:09;3.30;99.90
17202;DHT22;8717;53.588;10.176;2022-11-13T05:58:56;3.30;99.90
17202;DHT22;8717;53.588;10.176;2022-11-13T06:01:43;3.30;99.90
17202;DHT22;8717;53.588;10.176;2022-11-13T06:04:28;3.30;99.90
17202;DHT22;8717;53.588;10.176;2022-11-13T06:07:13;3.20;99.90
17202;DHT22;8717;53.588;10.176;2022-11-13T06:09:59;3.20;99.90
17202;DHT22;8717;53.588;10.176;2022-11-13T06:12:44;3.20;99.90
17202;DHT22;8717;53.588;10.176;2022-11-13T06:15:30;3.20;99.90
17202;DHT22;8717;53.588;10.176;2022-11-13T06:18:20;3.20;99.90
17202;DHT22;8717;53.588;10.176;2022-11-13T06:21:07;3.20;99.90
17202;DHT22;8717;53.588;10.176;2022-11-13T06:23:53;3.20;99.90
17202;DHT22;8717;53.588;10.176;2022-11-13T06:26:38;3.20;99.90
17202;DHT22;8717;53.588;10.176;2022-11-13T06:29:24;3.20;99.90
17202;DHT22;8717;53.588;10.176;2022-11-13T06:32:09;3.20;99.90
17202;DHT22;8717;53.588;10.176;2022-11-13T06:34:56;3.20;99.90
17202;DHT22;8717;53.588;10.176;2022-11-13T06:37:41;3.20;99.90
17202;DHT22;8717;53.588;10.176;2022-11-13T06:40:26;3.20;99.90
17202;DHT22;8717;53.588;10.176;2022-11-13T06:43:11;3.20;99.90
17202;DHT22;8717;53.588;10.176;2022-11-13T06:45:57;3.20;99.90
17202;DHT22;8717;53.588;10.176;2022-11-13T06:48:43;3.20;99.90
17202;DHT22;8717;53.588;10.176;2022-11-13T06:51:30;3.20;99.90
17202;DHT22;8717;53.588;10.176;2022-11-13T06:54:16;3.30;99.90
17202;DHT22;8717;53.588;10.176;2022-11-13T06:57:01;3.30;99.90
17202;DHT22;8717;53.588;10.176;2022-11-13T06:59:47;3.30;99.90
17202;DHT22;8717;53.588;10.176;2022-11-13T07:02:32;3.30;99.90
17202;DHT22;8717;53.588;10.176;2022-11-13T07:05:17;3.30;99.90
17202;DHT22;8717;53.588;10.176;2022-11-13T07:08:04;3.40;99.90
17202;DHT22;8717;53.588;10.176;2022-11-13T07:10:53;3.40;99.90
17202;DHT22;8717;53.588;10.176;2022-11-13T07:13:39;3.50;99.90
17202;DHT22;8717;53.588;10.176;2022-11-13T07:16:24;3.60;99.90
17202;DHT22;8717;53.588;10.176;2022-11-13T07:19:10;3.60;99.90
17202;DHT22;8717;53.588;10.176;2022-11-13T07:21:55;3.70;99.90
17202;DHT22;8717;53.588;10.176;2022-11-13T07:24:42;3.80;99.90
17202;DHT22;8717;53.588;10.176;2022-11-13T07:27:27;3.90;99.90
17202;DHT22;8717;53.588;10.176;2022-11-13T07:30:13;4.00;99.90
17202;DHT22;8717;53.588;10.176;2022-11-13T07:33:00;4.10;99.90
17202;DHT22;8717;53.588;10.176;2022-11-13T07:35:46;4.20;99.90
17202;DHT22;8717;53.588;10.176;2022-11-13T07:38:31;4.30;99.90
17202;DHT22;8717;53.588;10.176;2022-11-13T07:41:21;4.40;99.90
17202;DHT22;8717;53.588;10.176;2022-11-13T07:44:06;4.50;99.90
17202;DHT22;8717;53.588;10.176;2022-11-13T07:46:52;4.60;99.90
17202;DHT22;8717;53.588;10.176;2022-11-13T07:49:37;4.70;99.90
17202;DHT22;8717;53.588;10.176;2022-11-13T07:52:22;4.80;99.90
17202;DHT22;8717;53.588;10.176;2022-11-13T07:55:08;4.90;99.90
17202;DHT22;8717;53.588;10.176;2022-11-13T07:57:56;5.00;99.90
17202;DHT22;8717;53.588;10.176;2022-11-13T08:00:42;5.10;99.90
17202;DHT22;8717;53.588;10.176;2022-11-13T08:03:27;5.20;99.90
17202;DHT22;8717;53.588;10.176;2022-11-13T08:06:13;5.30;99.90
17202;DHT22;8717;53.588;10.176;2022-11-13T08:08:58;5.30;99.90
17202;DHT22;8717;53.588;10.176;2022-11-13T08:11:43;5.40;99.90
17202;DHT22;8717;53.588;10.176;2022-11-13T08:14:30;5.50;99.90
17202;DHT22;8717;53.588;10.176;2022-11-13T08:17:15;5.60;99.90
17202;DHT22;8717;53.588;10.176;2022-11-13T08:20:01;5.70;99.90
17202;DHT22;8717;53.588;10.176;2022-11-13T08:22:47;5.80;99.90
17202;DHT22;8717;53.588;10.176;2022-11-13T08:25:34;5.80;99.90
17202;DHT22;8717;53.588;10.176;2022-11-13T08:28:20;5.90;99.90
17202;DHT22;8717;53.588;10.176;2022-11-13T08:31:09;5.90;99.90
17202;DHT22;8717;53.588;10.176;2022-11-13T08:33:55;6.00;99.90
17202;DHT22;8717;53.588;10.176;2022-11-13T08:36:40;6.00;99.90
17202;DHT22;8717;53.588;10.176;2022-11-13T08:39:27;6.10;99.90
17202;DHT22;8717;53.588;10.176;2022-11-13T08:42:13;6.10;99.90
17202;DHT22;8717;53.588;10.176;2022-11-13T08:44:58;6.20;99.90
17202;DHT22;8717;53.588;10.176;2022-11-13T08:47:45;6.20;99.90
17202;DHT22;8717;53.588;10.176;2022-11-13T08:50:32;6.30;99.90
17202;DHT22;8717;53.588;10.176;2022-11-13T08:53:18;6.30;99.90
17202;DHT22;8717;53.588;10.176;2022-11-13T08:56:05;6.40;99.90
17202;DHT22;8717;53.588;10.176;2022-11-13T08:58:50;6.40;99.90
17202;DHT22;8717;53.588;10.176;2022-11-13T09:01:38;6.50;99.90
17202;DHT22;8717;53.588;10.176;2022-11-13T09:04:25;6.50;99.90
17202;DHT22;8717;53.588;10.176;2022-11-13T09:07:11;6.50;99.90
17202;DHT22;8717;53.588;10.176;2022-11-13T09:09:56;6.50;99.90
17202;DHT22;8717;53.588;10.176;2022-11-13T09:12:42;6.60;99.90
17202;DHT22;8717;53.588;10.176;2022-11-13T09:15:28;6.60;99.90
17202;DHT22;8717;53.588;10.176;2022-11-13T09:18:13;6.70;99.90
17202;DHT22;8717;53.588;10.176;2022-11-13T09:21:01;6.70;99.90
17202;DHT22;8717;53.588;10.176;2022-11-13T09:23:47;6.70;99.90
17202;DHT22;8717;53.588;10.176;2022-11-13T09:26:33;6.80;99.90
17202;DHT22;8717;53.588;10.176;2022-11-13T09:29:22;6.80;99.90
17202;DHT22;8717;53.588;10.176;2022-11-13T09:32:09;6.80;99.90
17202;DHT22;8717;53.588;10.176;2022-11-13T09:34:54;6.90;99.90
17202;DHT22;8717;53.588;10.176;2022-11-13T09:37:42;6.90;99.90
17202;DHT22;8717;53.588;10.176;2022-11-13T09:40:31;6.90;99.90
17202;DHT22;8717;53.588;10.176;2022-11-13T09:43:27;6.90;99.90
17202;DHT22;8717;53.588;10.176;2022-11-13T09:46:17;6.90;99.90
17202;DHT22;8717;53.588;10.176;2022-11-13T09:49:13;6.80;99.90
17202;DHT22;8717;53.588;10.176;2022-11-13T09:52:15;6.80;99.90
17202;DHT22;8717;53.588;10.176;2022-11-13T09:55:04;6.70;99.90
17202;DHT22;8717;53.588;10.176;2022-11-13T09:57:56;6.70;99.90
17202;DHT22;8717;53.588;10.176;2022-11-13T10:00:42;6.70;99.90
17202;DHT22;8717;53.588;10.176;2022-11-13T10:03:34;6.60;99.90
17202;DHT22;8717;53.588;10.176;2022-11-13T10:06:26;6.70;99.90
17202;DHT22;8717;53.588;10.176;2022-11-13T10:09:24;6.70;99.90
17202;DHT22;8717;53.588;10.176;2022-11-13T10:12:13;6.70;99.90
17202;DHT22;8717;53.588;10.176;2022-11-13T10:15:02;6.70;99.90
17202;DHT22;8717;53.588;10.176;2022-11-13T10:17:52;6.80;99.90
17202;DHT22;8717;53.588;10.176;2022-11-13T10:20:43;6.80;99.90
17202;DHT22;8717;53.588;10.176;2022-11-13T10:23:34;6.80;99.90
17202;DHT22;8717;53.588;10.176;2022-11-13T10:26:21;6.90;99.90
17202;DHT22;8717;53.588;10.176;2022-11-13T10:29:10;6.90;99.90
17202;DHT22;8717;53.588;10.176;2022-11-13T10:31:56;6.90;99.90
17202;DHT22;8717;53.588;10.176;2022-11-13T10:34:43;7.00;99.90
17202;DHT22;8717;53.588;10.176;2022-11-13T10:37:44;7.00;99.90
17202;DHT22;8717;53.588;10.176;2022-11-13T10:40:34;7.10;99.90
17202;DHT22;8717;53.588;10.176;2022-11-13T10:43:21;7.20;99.90
17202;DHT22;8717;53.588;10.176;2022-11-13T10:46:18;7.20;99.90
17202;DHT22;8717;53.588;10.176;2022-11-13T10:49:12;7.20;99.90
17202;DHT22;8717;53.588;10.176;2022-11-13T10:51:58;7.30;99.90
17202;DHT22;8717;53.588;10.176;2022-11-13T10:54:45;7.20;99.90
17202;DHT22;8717;53.588;10.176;2022-11-13T10:57:32;7.20;99.90
17202;DHT22;8717;53.588;10.176;2022-11-13T11:00:21;7.20;99.90
17202;DHT22;8717;53.588;10.176;2022-11-13T11:03:12;7.30;99.90
17202;DHT22;8717;53.588;10.176;2022-11-13T11:06:01;7.30;99.90
17202;DHT22;8717;53.588;10.176;2022-11-13T11:08:47;7.30;99.90
17202;DHT22;8717;53.588;10.176;2022-11-13T11:11:32;7.40;99.90
17202;DHT22;8717;53.588;10.176;2022-11-13T11:14:38;7.40;99.90
17202;DHT22;8717;53.588;10.176;2022-11-13T11:17:30;7.40;99.90
17202;DHT22;8717;53.588;10.176;2022-11-13T11:20:22;7.50;99.90
17202;DHT22;8717;53.588;10.176;2022-11-13T11:23:17;7.60;99.90
17202;DHT22;8717;53.588;10.176;2022-11-13T11:26:09;7.60;99.90
17202;DHT22;8717;53.588;10.176;2022-11-13T11:29:04;7.70;99.90
17202;DHT22;8717;53.588;10.176;2022-11-13T11:31:55;7.80;99.90
17202;DHT22;8717;53.588;10.176;2022-11-13T11:34:43;7.80;99.90
17202;DHT22;8717;53.588;10.176;2022-11-13T11:37:35;7.90;99.90
17202;DHT22;8717;53.588;10.176;2022-11-13T11:40:26;7.90;99.90
17202;DHT22;8717;53.588;10.176;2022-11-13T11:43:16;8.00;99.90
17202;DHT22;8717;53.588;10.176;2022-11-13T11:46:04;8.00;99.90
17202;DHT22;8717;53.588;10.176;2022-11-13T11:48:49;7.90;99.90
17202;DHT22;8717;53.588;10.176;2022-11-13T11:51:40;7.90;99.90
17202;DHT22;8717;53.588;10.176;2022-11-13T11:54:39;7.90;99.90
17202;DHT22;8717;53.588;10.176;2022-11-13T11:57:36;8.00;99.90
17202;DHT22;8717;53.588;10.176;2022-11-13T12:00:23;8.00;99.90
17202;DHT22;8717;53.588;10.176;2022-11-13T12:03:29;8.00;99.90
17202;DHT22;8717;53.588;10.176;2022-11-13T12:06:26;8.10;99.90
17202;DHT22;8717;53.588;10.176;2022-11-13T12:09:19;8.00;99.90
17202;DHT22;8717;53.588;10.176;2022-11-13T12:12:17;8.10;99.90
17202;DHT22;8717;53.588;10.176;2022-11-13T12:15:09;8.00;99.90
17202;DHT22;8717;53.588;10.176;2022-11-13T12:18:02;8.10;99.90
17202;DHT22;8717;53.588;10.176;2022-11-13T12:20:56;8.10;99.90
17202;DHT22;8717;53.588;10.176;2022-11-13T12:23:55;8.10;99.90
17202;DHT22;8717;53.588;10.176;2022-11-13T12:26:45;8.10;99.90
17202;DHT22;8717;53.588;10.176;2022-11-13T12:29:54;8.20;99.90
17202;DHT22;8717;53.588;10.176;2022-11-13T12:33:02;8.20;99.90
17202;DHT22;8717;53.588;10.176;2022-11-13T12:35:51;8.20;99.90
17202;DHT22;8717;53.588;10.176;2022-11-13T12:38:43;8.20;99.90
17202;DHT22;8717;53.588;10.176;2022-11-13T12:41:34;8.30;99.90
17202;DHT22;8717;53.588;10.176;2022-11-13T12:44:23;8.30;99.90
17202;DHT22;8717;53.588;10.176;2022-11-13T12:47:11;8.30;99.90
17202;DHT22;8717;53.588;10.176;2022-11-13T12:50:01;8.30;99.90
17202;DHT22;8717;53.588;10.176;2022-11-13T12:52:59;8.40;99.90
17202;DHT22;8717;53.588;10.176;2022-11-13T12:55:54;8.40;99.90
17202;DHT22;8717;53.588;10.176;2022-11-13T12:58:54;8.40;99.90
17202;DHT22;8717;53.588;10.176;2022-11-13T13:01:44;8.40;99.90
17202;DHT22;8717;53.588;10.176;2022-11-13T13:04:44;8.50;99.90
17202;DHT22;8717;53.588;10.176;2022-11-13T13:08:02;8.50;99.90
17202;DHT22;8717;53.588;10.176;2022-11-13T13:11:02;8.50;99.90
17202;DHT22;8717;53.588;10.176;2022-11-13T13:14:04;8.50;99.90
17202;DHT22;8717;53.588;10.176;2022-11-13T13:17:04;8.60;99.90
17202;DHT22;8717;53.588;10.176;2022-11-13T13:20:02;8.60;99.90
17202;DHT22;8717;53.588;10.176;2022-11-13T13:22:54;8.60;99.90
17202;DHT22;8717;53.588;10.176;2022-11-13T13:25:40;8.60;99.90
17202;DHT22;8717;53.588;10.176;2022-11-13T13:28:26;8.60;99.90
17202;DHT22;8717;53.588;10.176;2022-11-13T13:31:21;8.60;99.90
17202;DHT22;8717;53.588;10.176;2022-11-13T13:34:19;8.60;99.90
17202;DHT22;8717;53.588;10.176;2022-11-13T13:37:16;8.60;99.90
17202;DHT22;8717;53.588;10.176;2022-11-13T13:40:21;8.60;99.90
17202;DHT22;8717;53.588;10.176;2022-11-13T13:43:19;8.70;99.90
17202;DHT22;8717;53.588;10.176;2022-11-13T13:46:12;8.70;99.90
17202;DHT22;8717;53.588;10.176;2022-11-13T13:49:03;8.70;99.90
17202;DHT22;8717;53.588;10.176;2022-11-13T13:51:51;8.70;99.90
17202;DHT22;8717;53.588;10.176;2022-11-13T13:54:42;8.70;99.90
17202;DHT22;8717;53.588;10.176;2022-11-13T13:57:28;8.60;99.90
17202;DHT22;8717;53.588;10.176;2022-11-13T14:00:15;8.60;99.90
17202;DHT22;8717;53.588;10.176;2022-11-13T14:03:02;8.60;99.90
17202;DHT22;8717;53.588;10.176;2022-11-13T14:05:47;8.60;99.90
17202;DHT22;8717;53.588;10.176;2022-11-13T14:08:32;8.60;99.90
17202;DHT22;8717;53.588;10.176;2022-11-13T14:11:21;8.60;99.90
17202;DHT22;8717;53.588;10.176;2022-11-13T14:14:22;8.60;99.90
17202;DHT22;8717;53.588;10.176;2022-11-13T14:17:09;8.60;99.90
17202;DHT22;8717;53.588;10.176;2022-11-13T14:19:55;8.60;99.90
17202;DHT22;8717;53.588;10.176;2022-11-13T14:22:46;8.60;99.90
17202;DHT22;8717;53.588;10.176;2022-11-13T14:25:32;8.60;99.90
17202;DHT22;8717;53.588;10.176;2022-11-13T14:28:21;8.60;99.90
17202;DHT22;8717;53.588;10.176;2022-11-13T14:31:09;8.50;99.90
17202;DHT22;8717;53.588;10.176;2022-11-13T14:33:56;8.50;99.90
17202;DHT22;8717;53.588;10.176;2022-11-13T14:36:46;8.50;99.90
17202;DHT22;8717;53.588;10.176;2022-11-13T14:39:32;8.50;99.90
17202;DHT22;8717;53.588;10.176;2022-11-13T14:42:20;8.50;99.90
17202;DHT22;8717;53.588;10.176;2022-11-13T14:45:16;8.50;99.90
17202;DHT22;8717;53.588;10.176;2022-11-13T14:48:14;8.40;99.90
17202;DHT22;8717;53.588;10.176;2022-11-13T14:51:03;8.40;99.90
17202;DHT22;8717;53.588;10.176;2022-11-13T14:53:59;8.40;99.90
17202;DHT22;8717;53.588;10.176;2022-11-13T14:56:45;8.40;99.90
17202;DHT22;8717;53.588;10.176;2022-11-13T14:59:30;8.30;99.90
17202;DHT22;8717;53.588;10.176;2022-11-13T15:02:17;8.30;99.90
17202;DHT22;8717;53.588;10.176;2022-11-13T15:05:03;8.30;99.90
17202;DHT22;8717;53.588;10.176;2022-11-13T15:07:53;8.30;99.90
17202;DHT22;8717;53.588;10.176;2022-11-13T15:10:40;8.30;99.90
17202;DHT22;8717;53.588;10.176;2022-11-13T15:13:25;8.30;99.90
17202;DHT22;8717;53.588;10.176;2022-11-13T15:16:13;8.30;99.90
17202;DHT22;8717;53.588;10.176;2022-11-13T15:19:13;8.30;99.90
17202;DHT22;8717;53.588;10.176;2022-11-13T15:21:59;8.30;99.90
17202;DHT22;8717;53.588;10.176;2022-11-13T15:24:45;8.30;99.90
17202;DHT22;8717;53.588;10.176;2022-11-13T15:27:30;8.30;99.90
17202;DHT22;8717;53.588;10.176;2022-11-13T15:30:16;8.30;99.90
17202;DHT22;8717;53.588;10.176;2022-11-13T15:33:01;8.30;99.90
17202;DHT22;8717;53.588;10.176;2022-11-13T15:35:51;8.30;99.90
17202;DHT22;8717;53.588;10.176;2022-11-13T15:38:37;8.30;99.90
17202;DHT22;8717;53.588;10.176;2022-11-13T15:41:24;8.30;99.90
17202;DHT22;8717;53.588;10.176;2022-11-13T15:44:13;8.30;99.90
17202;DHT22;8717;53.588;10.176;2022-11-13T15:46:59;8.30;99.90
17202;DHT22;8717;53.588;10.176;2022-11-13T15:49:44;8.40;99.90
17202;DHT22;8717;53.588;10.176;2022-11-13T15:52:35;8.40;99.90
17202;DHT22;8717;53.588;10.176;2022-11-13T15:55:25;8.40;99.90
17202;DHT22;8717;53.588;10.176;2022-11-13T15:58:14;8.40;99.90
17202;DHT22;8717;53.588;10.176;2022-11-13T16:00:59;8.40;99.90
17202;DHT22;8717;53.588;10.176;2022-11-13T16:03:45;8.40;99.90
17202;DHT22;8717;53.588;10.176;2022-11-13T16:06:31;8.40;99.90
17202;DHT22;8717;53.588;10.176;2022-11-13T16:09:18;8.40;99.90
17202;DHT22;8717;53.588;10.176;2022-11-13T16:12:04;8.40;99.90
17202;DHT22;8717;53.588;10.176;2022-11-13T16:14:49;8.50;99.90
17202;DHT22;8717;53.588;10.176;2022-11-13T16:17:39;8.40;99.90
17202;DHT22;8717;53.588;10.176;2022-11-13T16:20:25;8.50;99.90
17202;DHT22;8717;53.588;10.176;2022-11-13T16:23:15;8.50;99.90
17202;DHT22;8717;53.588;10.176;2022-11-13T16:26:02;8.50;99.90
17202;DHT22;8717;53.588;10.176;2022-11-13T16:28:50;8.50;99.90
17202;DHT22;8717;53.588;10.176;2022-11-13T16:31:36;8.50;99.90
17202;DHT22;8717;53.588;10.176;2022-11-13T16:34:21;8.50;99.90
17202;DHT22;8717;53.588;10.176;2022-11-13T16:37:12;8.50;99.90
17202;DHT22;8717;53.588;10.176;2022-11-13T16:39:58;8.50;99.90
17202;DHT22;8717;53.588;10.176;2022-11-13T16:42:45;8.50;99.90
17202;DHT22;8717;53.588;10.176;2022-11-13T16:45:30;8.50;99.90
17202;DHT22;8717;53.588;10.176;2022-11-13T16:48:15;8.50;99.90
17202;DHT22;8717;53.588;10.176;2022-11-13T16:51:01;8.50;99.90
17202;DHT22;8717;53.588;10.176;2022-11-13T16:53:47;8.60;99.90
17202;DHT22;8717;53.588;10.176;2022-11-13T16:56:35;8.60;99.90
17202;DHT22;8717;53.588;10.176;2022-11-13T16:59:21;8.60;99.90
17202;DHT22;8717;53.588;10.176;2022-11-13T17:02:12;8.60;99.90
17202;DHT22;8717;53.588;10.176;2022-11-13T17:04:58;8.60;99.90
17202;DHT22;8717;53.588;10.176;2022-11-13T17:07:44;8.60;99.90
17202;DHT22;8717;53.588;10.176;2022-11-13T17:10:29;8.60;99.90
17202;DHT22;8717;53.588;10.176;2022-11-13T17:13:15;8.60;99.90
17202;DHT22;8717;53.588;10.176;2022-11-13T17:16:01;8.60;99.90
17202;DHT22;8717;53.588;10.176;2022-11-13T17:18:47;8.60;99.90
17202;DHT22;8717;53.588;10.176;2022-11-13T17:21:33;8.60;99.90
17202;DHT22;8717;53.588;10.176;2022-11-13T17:24:18;8.60;99.90
17202;DHT22;8717;53.588;10.176;2022-11-13T17:27:04;8.60;99.90
17202;DHT22;8717;53.588;10.176;2022-11-13T17:29:49;8.60;99.90
17202;DHT22;8717;53.588;10.176;2022-11-13T17:32:36;8.60;99.90
17202;DHT22;8717;53.588;10.176;2022-11-13T17:35:21;8.60;99.90
17202;DHT22;8717;53.588;10.176;2022-11-13T17:38:07;8.60;99.90
17202;DHT22;8717;53.588;10.176;2022-11-13T17:40:52;8.60;99.90
17202;DHT22;8717;53.588;10.176;2022-11-13T17:43:39;8.60;99.90
17202;DHT22;8717;53.588;10.176;2022-11-13T17:46:25;8.60;99.90
17202;DHT22;8717;53.588;10.176;2022-11-13T17:49:11;8.60;99.90
17202;DHT22;8717;53.588;10.176;2022-11-13T17:51:59;8.60;99.90
17202;DHT22;8717;53.588;10.176;2022-11-13T17:54:44;8.70;99.90
17202;DHT22;8717;53.588;10.176;2022-11-13T17:57:30;8.70;99.90